sensor_id;sensor_type;location;lat;lon;timestamp;P1;durP1;ratioP1;P2;durP2;ratioP2
71503;SDS011;59323;50.874;7.028;2022-12-18T00:03:45;24.30;;;7.28;;
71503;SDS011;59323;50.874;7.028;2022-12-18T00:06:11;24.40;;;7.50;;
71503;SDS011;59323;50.874;7.028;2022-12-18T00:08:36;17.75;;;6.35;;
71503;SDS011;59323;50.874;7.028;2022-12-18T00:11:06;22.80;;;7.33;;
71503;SDS011;59323;50.874;7.028;2022-12-18T00:13:33;19.40;;;6.30;;
71503;SDS011;59323;50.874;7.028;2022-12-18T00:16:03;18.38;;;6.53;;
71503;SDS011;59323;50.874;7.028;2022-12-18T00:18:30;19.98;;;7.35;;
71503;SDS011;59323;50.874;7.028;2022-12-18T00:20:58;19.23;;;7.07;;
71503;SDS011;59323;50.874;7.028;2022-12-18T00:23:25;22.02;;;6.28;;
71503;SDS011;59323;50.874;7.028;2022-12-18T00:25:51;22.73;;;7.57;;
71503;SDS011;59323;50.874;7.028;2022-12-18T00:28:16;18.50;;;6.97;;
71503;SDS011;59323;50.874;7.028;2022-12-18T00:30:41;23.77;;;7.40;;
71503;SDS011;59323;50.874;7.028;2022-12-18T00:33:07;19.10;;;6.90;;
71503;SDS011;59323;50.874;7.028;2022-12-18T00:35:32;21.27;;;7.37;;
71503;SDS011;59323;50.874;7.028;2022-12-18T00:37:57;22.33;;;7.33;;
71503;SDS011;59323;50.874;7.028;2022-12-18T00:40:23;22.30;;;6.80;;
71503;SDS011;59323;50.874;7.028;2022-12-18T00:42:48;22.40;;;7.37;;
71503;SDS011;59323;50.874;7.028;2022-12-18T00:45:27;18.67;;;6.83;;
71503;SDS011;59323;50.874;7.028;2022-12-18T00:47:55;21.13;;;6.43;;
71503;SDS011;59323;50.874;7.028;2022-12-18T00:50:22;23.08;;;7.10;;
71503;SDS011;59323;50.874;7.028;2022-12-18T00:52:49;19.88;;;6.43;;
71503;SDS011;59323;50.874;7.028;2022-12-18T00:55:14;25.53;;;7.80;;
71503;SDS011;59323;50.874;7.028;2022-12-18T00:57:40;19.60;;;6.63;;
71503;SDS011;59323;50.874;7.028;2022-12-18T01:00:07;17.80;;;5.97;;
71503;SDS011;59323;50.874;7.028;2022-12-18T01:02:34;19.77;;;6.75;;
71503;SDS011;59323;50.874;7.028;2022-12-18T01:05:00;20.83;;;6.53;;
71503;SDS011;59323;50.874;7.028;2022-12-18T01:07:26;25.35;;;7.15;;
71503;SDS011;59323;50.874;7.028;2022-12-18T01:09:51;25.43;;;7.13;;
71503;SDS011;59323;50.874;7.028;2022-12-18T01:12:16;26.47;;;6.83;;
71503;SDS011;59323;50.874;7.028;2022-12-18T01:14:41;17.23;;;5.90;;
71503;SDS011;59323;50.874;7.028;2022-12-18T01:17:07;18.38;;;5.97;;
71503;SDS011;59323;50.874;7.028;2022-12-18T01:19:32;22.67;;;6.80;;
71503;SDS011;59323;50.874;7.028;2022-12-18T01:21:58;20.90;;;6.00;;
71503;SDS011;59323;50.874;7.028;2022-12-18T01:24:23;21.17;;;6.97;;
71503;SDS011;59323;50.874;7.028;2022-12-18T01:26:49;19.13;;;6.40;;
71503;SDS011;59323;50.874;7.028;2022-12-18T01:29:14;20.30;;;7.53;;
71503;SDS011;59323;50.874;7.028;2022-12-18T01:31:41;22.42;;;7.03;;
71503;SDS011;59323;50.874;7.028;2022-12-18T01:34:07;19.63;;;7.33;;
71503;SDS011;59323;50.874;7.028;2022-12-18T01:36:36;22.20;;;7.53;;
71503;SDS011;59323;50.874;7.028;2022-12-18T01:39:05;18.48;;;7.18;;
71503;SDS011;59323;50.874;7.028;2022-12-18T01:41:35;21.80;;;6.85;;
71503;SDS011;59323;50.874;7.028;2022-12-18T01:49:58;19.53;;;7.27;;
71503;SDS011;59323;50.874;7.028;2022-12-18T01:52:28;19.80;;;6.40;;
71503;SDS011;59323;50.874;7.028;2022-12-18T01:54:57;23.75;;;7.72;;
71503;SDS011;59323;50.874;7.028;2022-12-18T01:57:23;21.13;;;7.15;;
71503;SDS011;59323;50.874;7.028;2022-12-18T01:59:50;22.20;;;7.90;;
71503;SDS011;59323;50.874;7.028;2022-12-18T02:02:18;18.30;;;6.67;;
71503;SDS011;59323;50.874;7.028;2022-12-18T02:04:49;20.75;;;7.10;;
71503;SDS011;59323;50.874;7.028;2022-12-18T02:07:24;28.45;;;7.70;;
71503;SDS011;59323;50.874;7.028;2022-12-18T02:10:13;23.33;;;7.32;;
71503;SDS011;59323;50.874;7.028;2022-12-18T02:15:17;20.47;;;7.20;;
71503;SDS011;59323;50.874;7.028;2022-12-18T02:17:54;21.10;;;6.97;;
71503;SDS011;59323;50.874;7.028;2022-12-18T02:23:09;18.27;;;6.43;;
71503;SDS011;59323;50.874;7.028;2022-12-18T02:28:39;19.53;;;7.00;;
71503;SDS011;59323;50.874;7.028;2022-12-18T02:31:08;22.02;;;7.13;;
71503;SDS011;59323;50.874;7.028;2022-12-18T02:33:38;21.73;;;8.05;;
71503;SDS011;59323;50.874;7.028;2022-12-18T02:36:07;22.45;;;8.02;;
71503;SDS011;59323;50.874;7.028;2022-12-18T02:38:35;23.40;;;7.30;;
71503;SDS011;59323;50.874;7.028;2022-12-18T02:41:02;19.73;;;6.73;;
71503;SDS011;59323;50.874;7.028;2022-12-18T02:43:29;20.40;;;6.32;;
71503;SDS011;59323;50.874;7.028;2022-12-18T02:45:56;23.83;;;8.50;;
71503;SDS011;59323;50.874;7.028;2022-12-18T02:48:24;19.17;;;7.88;;
71503;SDS011;59323;50.874;7.028;2022-12-18T02:51:01;20.17;;;7.23;;
71503;SDS011;59323;50.874;7.028;2022-12-18T02:53:43;22.92;;;7.32;;
71503;SDS011;59323;50.874;7.028;2022-12-18T02:56:18;19.80;;;7.30;;
71503;SDS011;59323;50.874;7.028;2022-12-18T03:04:11;18.58;;;6.90;;
71503;SDS011;59323;50.874;7.028;2022-12-18T03:06:43;24.80;;;7.33;;
71503;SDS011;59323;50.874;7.028;2022-12-18T03:09:21;20.75;;;6.22;;
71503;SDS011;59323;50.874;7.028;2022-12-18T03:11:55;19.85;;;7.35;;
71503;SDS011;59323;50.874;7.028;2022-12-18T03:14:42;21.27;;;7.13;;
71503;SDS011;59323;50.874;7.028;2022-12-18T03:17:10;23.02;;;7.82;;
71503;SDS011;59323;50.874;7.028;2022-12-18T03:19:40;17.33;;;6.00;;
71503;SDS011;59323;50.874;7.028;2022-12-18T03:22:07;24.15;;;6.47;;
71503;SDS011;59323;50.874;7.028;2022-12-18T03:24:34;19.27;;;7.53;;
71503;SDS011;59323;50.874;7.028;2022-12-18T03:27:05;21.67;;;6.90;;
71503;SDS011;59323;50.874;7.028;2022-12-18T03:29:40;20.45;;;6.85;;
71503;SDS011;59323;50.874;7.028;2022-12-18T03:32:11;18.03;;;6.73;;
71503;SDS011;59323;50.874;7.028;2022-12-18T03:34:42;19.42;;;6.28;;
71503;SDS011;59323;50.874;7.028;2022-12-18T03:37:11;20.27;;;6.90;;
71503;SDS011;59323;50.874;7.028;2022-12-18T03:39:37;19.67;;;7.60;;
71503;SDS011;59323;50.874;7.028;2022-12-18T03:44:53;18.77;;;6.50;;
71503;SDS011;59323;50.874;7.028;2022-12-18T03:50:22;19.45;;;7.00;;
71503;SDS011;59323;50.874;7.028;2022-12-18T03:52:57;17.65;;;5.88;;
71503;SDS011;59323;50.874;7.028;2022-12-18T03:55:31;18.40;;;6.78;;
71503;SDS011;59323;50.874;7.028;2022-12-18T03:57:59;19.42;;;6.75;;
71503;SDS011;59323;50.874;7.028;2022-12-18T04:00:28;19.87;;;6.20;;
71503;SDS011;59323;50.874;7.028;2022-12-18T04:02:56;21.85;;;7.32;;
71503;SDS011;59323;50.874;7.028;2022-12-18T04:05:24;20.80;;;6.95;;
71503;SDS011;59323;50.874;7.028;2022-12-18T04:07:51;19.70;;;7.50;;
71503;SDS011;59323;50.874;7.028;2022-12-18T04:10:19;21.08;;;7.80;;
71503;SDS011;59323;50.874;7.028;2022-12-18T04:12:44;23.67;;;7.60;;
71503;SDS011;59323;50.874;7.028;2022-12-18T04:15:10;18.47;;;7.43;;
71503;SDS011;59323;50.874;7.028;2022-12-18T04:17:37;19.60;;;6.70;;
71503;SDS011;59323;50.874;7.028;2022-12-18T04:20:03;21.58;;;7.57;;
71503;SDS011;59323;50.874;7.028;2022-12-18T04:22:29;24.00;;;7.53;;
71503;SDS011;59323;50.874;7.028;2022-12-18T04:24:54;24.33;;;8.57;;
71503;SDS011;59323;50.874;7.028;2022-12-18T04:27:19;18.73;;;7.53;;
71503;SDS011;59323;50.874;7.028;2022-12-18T04:29:45;19.43;;;7.10;;
71503;SDS011;59323;50.874;7.028;2022-12-18T04:32:10;23.97;;;8.30;;
71503;SDS011;59323;50.874;7.028;2022-12-18T04:34:35;22.00;;;6.60;;
71503;SDS011;59323;50.874;7.028;2022-12-18T04:37:01;18.70;;;7.10;;
71503;SDS011;59323;50.874;7.028;2022-12-18T04:39:26;18.37;;;7.13;;
71503;SDS011;59323;50.874;7.028;2022-12-18T04:41:51;22.33;;;8.20;;
71503;SDS011;59323;50.874;7.028;2022-12-18T04:44:17;24.60;;;7.53;;
71503;SDS011;59323;50.874;7.028;2022-12-18T04:46:42;24.80;;;8.30;;
71503;SDS011;59323;50.874;7.028;2022-12-18T04:49:07;27.17;;;8.00;;
71503;SDS011;59323;50.874;7.028;2022-12-18T04:51:35;24.00;;;7.47;;
71503;SDS011;59323;50.874;7.028;2022-12-18T04:54:00;21.60;;;7.83;;
71503;SDS011;59323;50.874;7.028;2022-12-18T04:56:26;24.23;;;7.87;;
71503;SDS011;59323;50.874;7.028;2022-12-18T04:58:51;28.20;;;8.57;;
71503;SDS011;59323;50.874;7.028;2022-12-18T05:01:18;23.10;;;8.53;;
71503;SDS011;59323;50.874;7.028;2022-12-18T05:03:44;20.98;;;8.23;;
71503;SDS011;59323;50.874;7.028;2022-12-18T05:06:09;24.07;;;7.63;;
71503;SDS011;59323;50.874;7.028;2022-12-18T05:08:35;23.48;;;8.05;;
71503;SDS011;59323;50.874;7.028;2022-12-18T05:11:01;25.43;;;7.43;;
71503;SDS011;59323;50.874;7.028;2022-12-18T05:13:29;23.75;;;7.85;;
71503;SDS011;59323;50.874;7.028;2022-12-18T05:15:55;24.23;;;7.53;;
71503;SDS011;59323;50.874;7.028;2022-12-18T05:18:21;25.80;;;7.43;;
71503;SDS011;59323;50.874;7.028;2022-12-18T05:20:47;25.77;;;9.07;;
71503;SDS011;59323;50.874;7.028;2022-12-18T05:23:14;29.30;;;8.30;;
71503;SDS011;59323;50.874;7.028;2022-12-18T05:25:39;19.63;;;6.53;;
71503;SDS011;59323;50.874;7.028;2022-12-18T05:28:05;22.10;;;7.93;;
71503;SDS011;59323;50.874;7.028;2022-12-18T05:30:30;19.07;;;7.67;;
71503;SDS011;59323;50.874;7.028;2022-12-18T05:32:55;27.33;;;8.37;;
71503;SDS011;59323;50.874;7.028;2022-12-18T05:35:21;22.30;;;7.30;;
71503;SDS011;59323;50.874;7.028;2022-12-18T05:37:46;22.13;;;8.00;;
71503;SDS011;59323;50.874;7.028;2022-12-18T05:40:11;21.53;;;7.87;;
71503;SDS011;59323;50.874;7.028;2022-12-18T05:42:37;21.60;;;7.97;;
71503;SDS011;59323;50.874;7.028;2022-12-18T05:45:03;23.25;;;7.20;;
71503;SDS011;59323;50.874;7.028;2022-12-18T05:47:29;23.13;;;7.77;;
71503;SDS011;59323;50.874;7.028;2022-12-18T05:49:54;23.97;;;8.10;;
71503;SDS011;59323;50.874;7.028;2022-12-18T05:52:20;23.15;;;7.15;;
71503;SDS011;59323;50.874;7.028;2022-12-18T05:54:45;21.57;;;8.10;;
71503;SDS011;59323;50.874;7.028;2022-12-18T05:57:11;23.47;;;7.07;;
71503;SDS011;59323;50.874;7.028;2022-12-18T05:59:36;25.87;;;8.30;;
71503;SDS011;59323;50.874;7.028;2022-12-18T06:02:01;23.93;;;8.97;;
71503;SDS011;59323;50.874;7.028;2022-12-18T06:04:27;23.87;;;7.93;;
71503;SDS011;59323;50.874;7.028;2022-12-18T06:06:55;23.45;;;7.60;;
71503;SDS011;59323;50.874;7.028;2022-12-18T06:09:20;25.43;;;8.93;;
71503;SDS011;59323;50.874;7.028;2022-12-18T06:11:46;27.33;;;8.03;;
71503;SDS011;59323;50.874;7.028;2022-12-18T06:14:11;21.63;;;7.50;;
71503;SDS011;59323;50.874;7.028;2022-12-18T06:16:36;22.73;;;7.70;;
71503;SDS011;59323;50.874;7.028;2022-12-18T06:19:03;19.83;;;7.00;;
71503;SDS011;59323;50.874;7.028;2022-12-18T06:21:29;24.75;;;7.95;;
71503;SDS011;59323;50.874;7.028;2022-12-18T06:23:55;27.08;;;8.65;;
71503;SDS011;59323;50.874;7.028;2022-12-18T06:26:21;20.63;;;7.43;;
71503;SDS011;59323;50.874;7.028;2022-12-18T06:28:46;24.00;;;8.40;;
71503;SDS011;59323;50.874;7.028;2022-12-18T06:31:12;18.70;;;6.78;;
71503;SDS011;59323;50.874;7.028;2022-12-18T06:33:37;26.10;;;7.53;;
71503;SDS011;59323;50.874;7.028;2022-12-18T06:36:10;21.00;;;7.30;;
71503;SDS011;59323;50.874;7.028;2022-12-18T06:38:37;27.92;;;9.40;;
71503;SDS011;59323;50.874;7.028;2022-12-18T06:41:15;25.17;;;7.63;;
71503;SDS011;59323;50.874;7.028;2022-12-18T06:43:42;27.30;;;8.23;;
71503;SDS011;59323;50.874;7.028;2022-12-18T06:46:08;22.80;;;7.77;;
71503;SDS011;59323;50.874;7.028;2022-12-18T06:48:34;26.10;;;9.50;;
71503;SDS011;59323;50.874;7.028;2022-12-18T06:51:00;25.15;;;8.38;;
71503;SDS011;59323;50.874;7.028;2022-12-18T06:53:26;29.10;;;8.10;;
71503;SDS011;59323;50.874;7.028;2022-12-18T06:55:52;23.98;;;8.65;;
71503;SDS011;59323;50.874;7.028;2022-12-18T06:58:24;26.02;;;8.35;;
71503;SDS011;59323;50.874;7.028;2022-12-18T07:00:49;29.07;;;9.00;;
71503;SDS011;59323;50.874;7.028;2022-12-18T07:03:15;27.80;;;9.00;;
71503;SDS011;59323;50.874;7.028;2022-12-18T07:05:40;27.20;;;8.47;;
71503;SDS011;59323;50.874;7.028;2022-12-18T07:08:06;33.08;;;9.68;;
71503;SDS011;59323;50.874;7.028;2022-12-18T07:10:31;30.50;;;8.67;;
71503;SDS011;59323;50.874;7.028;2022-12-18T07:12:56;23.53;;;8.77;;
71503;SDS011;59323;50.874;7.028;2022-12-18T07:15:22;24.27;;;8.33;;
71503;SDS011;59323;50.874;7.028;2022-12-18T07:17:47;26.50;;;8.65;;
71503;SDS011;59323;50.874;7.028;2022-12-18T07:20:12;26.57;;;9.20;;
71503;SDS011;59323;50.874;7.028;2022-12-18T07:22:38;24.77;;;8.63;;
71503;SDS011;59323;50.874;7.028;2022-12-18T07:25:03;30.03;;;9.00;;
71503;SDS011;59323;50.874;7.028;2022-12-18T07:27:29;31.27;;;10.43;;
71503;SDS011;59323;50.874;7.028;2022-12-18T07:29:54;27.27;;;9.27;;
71503;SDS011;59323;50.874;7.028;2022-12-18T07:32:19;27.17;;;8.60;;
71503;SDS011;59323;50.874;7.028;2022-12-18T07:34:45;26.20;;;8.83;;
71503;SDS011;59323;50.874;7.028;2022-12-18T07:37:10;24.57;;;8.27;;
71503;SDS011;59323;50.874;7.028;2022-12-18T07:39:35;30.77;;;9.97;;
71503;SDS011;59323;50.874;7.028;2022-12-18T07:42:01;24.93;;;9.30;;
71503;SDS011;59323;50.874;7.028;2022-12-18T07:44:45;27.05;;;9.20;;
71503;SDS011;59323;50.874;7.028;2022-12-18T07:47:10;31.67;;;9.17;;
71503;SDS011;59323;50.874;7.028;2022-12-18T07:49:35;21.23;;;8.33;;
71503;SDS011;59323;50.874;7.028;2022-12-18T07:52:01;27.90;;;9.33;;
71503;SDS011;59323;50.874;7.028;2022-12-18T07:54:26;28.83;;;9.50;;
71503;SDS011;59323;50.874;7.028;2022-12-18T07:56:52;25.13;;;8.85;;
71503;SDS011;59323;50.874;7.028;2022-12-18T07:59:17;24.60;;;8.63;;
71503;SDS011;59323;50.874;7.028;2022-12-18T08:01:43;26.20;;;8.00;;
71503;SDS011;59323;50.874;7.028;2022-12-18T08:04:11;25.27;;;9.20;;
71503;SDS011;59323;50.874;7.028;2022-12-18T08:06:37;27.23;;;8.50;;
71503;SDS011;59323;50.874;7.028;2022-12-18T08:09:02;28.40;;;9.60;;
71503;SDS011;59323;50.874;7.028;2022-12-18T08:11:28;28.53;;;10.27;;
71503;SDS011;59323;50.874;7.028;2022-12-18T08:13:54;30.75;;;10.07;;
71503;SDS011;59323;50.874;7.028;2022-12-18T08:16:20;26.73;;;9.20;;
71503;SDS011;59323;50.874;7.028;2022-12-18T08:18:46;26.10;;;8.93;;
71503;SDS011;59323;50.874;7.028;2022-12-18T08:21:19;27.10;;;9.48;;
71503;SDS011;59323;50.874;7.028;2022-12-18T08:23:48;36.30;;;14.43;;
71503;SDS011;59323;50.874;7.028;2022-12-18T08:26:14;27.88;;;10.65;;
71503;SDS011;59323;50.874;7.028;2022-12-18T08:28:39;32.83;;;10.93;;
71503;SDS011;59323;50.874;7.028;2022-12-18T08:31:05;28.77;;;10.05;;
71503;SDS011;59323;50.874;7.028;2022-12-18T08:33:31;28.85;;;9.98;;
71503;SDS011;59323;50.874;7.028;2022-12-18T08:35:58;27.08;;;8.95;;
71503;SDS011;59323;50.874;7.028;2022-12-18T08:38:24;24.40;;;8.90;;
71503;SDS011;59323;50.874;7.028;2022-12-18T08:40:53;24.95;;;8.90;;
71503;SDS011;59323;50.874;7.028;2022-12-18T08:43:24;27.10;;;10.07;;
71503;SDS011;59323;50.874;7.028;2022-12-18T08:46:07;27.92;;;8.82;;
71503;SDS011;59323;50.874;7.028;2022-12-18T08:48:33;27.00;;;9.43;;
71503;SDS011;59323;50.874;7.028;2022-12-18T08:50:59;24.10;;;8.85;;
71503;SDS011;59323;50.874;7.028;2022-12-18T08:53:25;25.43;;;8.70;;
71503;SDS011;59323;50.874;7.028;2022-12-18T08:55:52;27.90;;;8.98;;
71503;SDS011;59323;50.874;7.028;2022-12-18T08:58:17;21.55;;;8.00;;
71503;SDS011;59323;50.874;7.028;2022-12-18T09:00:43;25.53;;;8.77;;
71503;SDS011;59323;50.874;7.028;2022-12-18T09:03:12;36.27;;;14.10;;
71503;SDS011;59323;50.874;7.028;2022-12-18T09:05:42;29.42;;;10.63;;
71503;SDS011;59323;50.874;7.028;2022-12-18T09:08:08;23.02;;;8.63;;
71503;SDS011;59323;50.874;7.028;2022-12-18T09:10:34;20.27;;;7.77;;
71503;SDS011;59323;50.874;7.028;2022-12-18T09:13:05;28.98;;;8.82;;
71503;SDS011;59323;50.874;7.028;2022-12-18T09:15:31;26.23;;;9.13;;
71503;SDS011;59323;50.874;7.028;2022-12-18T09:17:56;23.97;;;8.47;;
71503;SDS011;59323;50.874;7.028;2022-12-18T09:20:22;24.73;;;8.60;;
71503;SDS011;59323;50.874;7.028;2022-12-18T09:22:47;25.30;;;8.60;;
71503;SDS011;59323;50.874;7.028;2022-12-18T09:25:12;21.87;;;8.50;;
71503;SDS011;59323;50.874;7.028;2022-12-18T09:27:38;24.75;;;9.02;;
71503;SDS011;59323;50.874;7.028;2022-12-18T09:30:04;22.53;;;8.17;;
71503;SDS011;59323;50.874;7.028;2022-12-18T09:32:30;26.40;;;8.90;;
71503;SDS011;59323;50.874;7.028;2022-12-18T09:34:55;25.70;;;9.90;;
71503;SDS011;59323;50.874;7.028;2022-12-18T09:37:20;20.57;;;8.07;;
71503;SDS011;59323;50.874;7.028;2022-12-18T09:39:46;27.80;;;9.07;;
71503;SDS011;59323;50.874;7.028;2022-12-18T09:42:21;24.57;;;9.83;;
71503;SDS011;59323;50.874;7.028;2022-12-18T09:44:53;27.27;;;10.73;;
71503;SDS011;59323;50.874;7.028;2022-12-18T09:49:54;28.13;;;11.50;;
71503;SDS011;59323;50.874;7.028;2022-12-18T09:52:40;34.28;;;13.05;;
71503;SDS011;59323;50.874;7.028;2022-12-18T09:57:40;32.30;;;11.43;;
71503;SDS011;59323;50.874;7.028;2022-12-18T10:00:18;27.85;;;10.48;;
71503;SDS011;59323;50.874;7.028;2022-12-18T10:02:45;27.30;;;11.75;;
71503;SDS011;59323;50.874;7.028;2022-12-18T10:05:13;27.10;;;10.48;;
71503;SDS011;59323;50.874;7.028;2022-12-18T10:07:47;20.98;;;9.18;;
71503;SDS011;59323;50.874;7.028;2022-12-18T10:18:32;27.30;;;9.30;;
71503;SDS011;59323;50.874;7.028;2022-12-18T10:21:22;23.23;;;9.93;;
71503;SDS011;59323;50.874;7.028;2022-12-18T10:23:59;27.33;;;9.70;;
71503;SDS011;59323;50.874;7.028;2022-12-18T10:26:40;23.20;;;7.88;;
71503;SDS011;59323;50.874;7.028;2022-12-18T10:29:13;23.58;;;9.93;;
71503;SDS011;59323;50.874;7.028;2022-12-18T10:31:40;23.70;;;9.43;;
71503;SDS011;59323;50.874;7.028;2022-12-18T10:34:10;22.93;;;8.70;;
71503;SDS011;59323;50.874;7.028;2022-12-18T10:36:39;21.45;;;8.82;;
71503;SDS011;59323;50.874;7.028;2022-12-18T10:39:19;27.80;;;8.90;;
71503;SDS011;59323;50.874;7.028;2022-12-18T10:42:10;21.58;;;8.23;;
71503;SDS011;59323;50.874;7.028;2022-12-18T10:44:44;17.10;;;6.93;;
71503;SDS011;59323;50.874;7.028;2022-12-18T10:47:17;20.65;;;8.27;;
71503;SDS011;59323;50.874;7.028;2022-12-18T10:49:51;25.40;;;7.68;;
71503;SDS011;59323;50.874;7.028;2022-12-18T10:52:20;23.92;;;8.52;;
71503;SDS011;59323;50.874;7.028;2022-12-18T10:54:58;24.15;;;10.02;;
71503;SDS011;59323;50.874;7.028;2022-12-18T10:57:33;20.83;;;8.80;;
71503;SDS011;59323;50.874;7.028;2022-12-18T11:03:00;23.45;;;7.28;;
71503;SDS011;59323;50.874;7.028;2022-12-18T11:05:27;24.50;;;7.57;;
71503;SDS011;59323;50.874;7.028;2022-12-18T11:07:58;19.88;;;7.28;;
71503;SDS011;59323;50.874;7.028;2022-12-18T11:10:32;24.48;;;8.02;;
71503;SDS011;59323;50.874;7.028;2022-12-18T11:13:16;22.02;;;8.32;;
71503;SDS011;59323;50.874;7.028;2022-12-18T11:15:44;22.47;;;8.27;;
71503;SDS011;59323;50.874;7.028;2022-12-18T11:18:32;21.13;;;7.13;;
71503;SDS011;59323;50.874;7.028;2022-12-18T11:23:28;20.42;;;8.27;;
71503;SDS011;59323;50.874;7.028;2022-12-18T11:25:57;24.20;;;8.10;;
71503;SDS011;59323;50.874;7.028;2022-12-18T11:31:16;26.27;;;9.02;;
71503;SDS011;59323;50.874;7.028;2022-12-18T11:34:02;22.93;;;8.30;;
71503;SDS011;59323;50.874;7.028;2022-12-18T11:36:31;26.13;;;8.77;;
71503;SDS011;59323;50.874;7.028;2022-12-18T11:39:07;23.92;;;9.20;;
71503;SDS011;59323;50.874;7.028;2022-12-18T11:41:48;27.88;;;9.13;;
71503;SDS011;59323;50.874;7.028;2022-12-18T11:44:36;24.35;;;8.82;;
71503;SDS011;59323;50.874;7.028;2022-12-18T11:47:13;26.17;;;9.00;;
71503;SDS011;59323;50.874;7.028;2022-12-18T11:49:47;22.65;;;8.68;;
71503;SDS011;59323;50.874;7.028;2022-12-18T11:52:22;20.27;;;7.38;;
71503;SDS011;59323;50.874;7.028;2022-12-18T11:54:52;21.23;;;8.00;;
71503;SDS011;59323;50.874;7.028;2022-12-18T12:08:15;27.30;;;8.37;;
71503;SDS011;59323;50.874;7.028;2022-12-18T12:13:34;24.42;;;8.70;;
71503;SDS011;59323;50.874;7.028;2022-12-18T12:16:27;24.25;;;8.48;;
71503;SDS011;59323;50.874;7.028;2022-12-18T12:21:58;23.90;;;8.40;;
71503;SDS011;59323;50.874;7.028;2022-12-18T12:24:41;25.85;;;9.38;;
71503;SDS011;59323;50.874;7.028;2022-12-18T12:38:20;24.67;;;9.77;;
71503;SDS011;59323;50.874;7.028;2022-12-18T12:43:35;24.95;;;8.95;;
71503;SDS011;59323;50.874;7.028;2022-12-18T12:46:07;22.20;;;9.15;;
71503;SDS011;59323;50.874;7.028;2022-12-18T12:51:21;26.08;;;9.50;;
71503;SDS011;59323;50.874;7.028;2022-12-18T12:53:49;25.88;;;9.55;;
71503;SDS011;59323;50.874;7.028;2022-12-18T12:56:16;27.40;;;9.55;;
71503;SDS011;59323;50.874;7.028;2022-12-18T12:59:02;26.88;;;9.30;;
71503;SDS011;59323;50.874;7.028;2022-12-18T13:01:40;25.20;;;9.33;;
71503;SDS011;59323;50.874;7.028;2022-12-18T13:07:15;25.90;;;9.00;;
71503;SDS011;59323;50.874;7.028;2022-12-18T13:18:24;25.88;;;9.60;;
71503;SDS011;59323;50.874;7.028;2022-12-18T13:25:49;24.23;;;8.73;;
71503;SDS011;59323;50.874;7.028;2022-12-18T13:28:16;27.38;;;9.93;;
71503;SDS011;59323;50.874;7.028;2022-12-18T13:30:47;26.47;;;10.20;;
71503;SDS011;59323;50.874;7.028;2022-12-18T13:38:21;32.22;;;10.10;;
71503;SDS011;59323;50.874;7.028;2022-12-18T13:40:56;26.45;;;9.70;;
71503;SDS011;59323;50.874;7.028;2022-12-18T13:43:27;24.55;;;10.05;;
71503;SDS011;59323;50.874;7.028;2022-12-18T13:46:03;30.27;;;10.30;;
71503;SDS011;59323;50.874;7.028;2022-12-18T13:48:31;25.30;;;9.97;;
71503;SDS011;59323;50.874;7.028;2022-12-18T13:53:27;27.08;;;9.98;;
71503;SDS011;59323;50.874;7.028;2022-12-18T13:55:55;30.25;;;10.63;;
71503;SDS011;59323;50.874;7.028;2022-12-18T13:58:21;25.88;;;9.18;;
71503;SDS011;59323;50.874;7.028;2022-12-18T14:00:47;24.47;;;9.70;;
71503;SDS011;59323;50.874;7.028;2022-12-18T14:03:20;32.67;;;10.67;;
71503;SDS011;59323;50.874;7.028;2022-12-18T14:06:10;27.33;;;9.23;;
71503;SDS011;59323;50.874;7.028;2022-12-18T14:08:38;27.35;;;9.57;;
71503;SDS011;59323;50.874;7.028;2022-12-18T14:11:05;24.63;;;9.60;;
71503;SDS011;59323;50.874;7.028;2022-12-18T14:13:33;23.60;;;8.80;;
71503;SDS011;59323;50.874;7.028;2022-12-18T14:16:03;28.70;;;10.48;;
71503;SDS011;59323;50.874;7.028;2022-12-18T14:18:48;25.90;;;9.65;;
71503;SDS011;59323;50.874;7.028;2022-12-18T14:21:20;27.83;;;10.45;;
71503;SDS011;59323;50.874;7.028;2022-12-18T14:23:48;29.77;;;10.17;;
71503;SDS011;59323;50.874;7.028;2022-12-18T14:26:21;26.33;;;9.75;;
71503;SDS011;59323;50.874;7.028;2022-12-18T14:28:46;26.42;;;10.27;;
71503;SDS011;59323;50.874;7.028;2022-12-18T14:31:17;26.90;;;9.67;;
71503;SDS011;59323;50.874;7.028;2022-12-18T14:33:43;30.55;;;10.13;;
71503;SDS011;59323;50.874;7.028;2022-12-18T14:36:14;30.27;;;10.77;;
71503;SDS011;59323;50.874;7.028;2022-12-18T14:38:42;27.95;;;10.55;;
71503;SDS011;59323;50.874;7.028;2022-12-18T14:41:14;30.57;;;11.53;;
71503;SDS011;59323;50.874;7.028;2022-12-18T14:43:45;31.67;;;9.90;;
71503;SDS011;59323;50.874;7.028;2022-12-18T14:48:57;26.27;;;10.38;;
71503;SDS011;59323;50.874;7.028;2022-12-18T14:51:25;28.30;;;10.00;;
71503;SDS011;59323;50.874;7.028;2022-12-18T14:53:55;26.75;;;10.52;;
71503;SDS011;59323;50.874;7.028;2022-12-18T14:56:24;23.55;;;9.48;;
71503;SDS011;59323;50.874;7.028;2022-12-18T15:01:34;30.20;;;11.25;;
71503;SDS011;59323;50.874;7.028;2022-12-18T15:04:03;27.77;;;11.50;;
71503;SDS011;59323;50.874;7.028;2022-12-18T15:06:31;34.53;;;11.75;;
71503;SDS011;59323;50.874;7.028;2022-12-18T15:08:58;28.48;;;12.48;;
71503;SDS011;59323;50.874;7.028;2022-12-18T15:11:26;29.90;;;11.77;;
71503;SDS011;59323;50.874;7.028;2022-12-18T15:13:51;29.75;;;12.05;;
71503;SDS011;59323;50.874;7.028;2022-12-18T15:16:17;29.60;;;11.50;;
71503;SDS011;59323;50.874;7.028;2022-12-18T15:18:42;27.33;;;10.83;;
71503;SDS011;59323;50.874;7.028;2022-12-18T15:21:10;30.67;;;9.80;;
71503;SDS011;59323;50.874;7.028;2022-12-18T15:23:47;31.65;;;10.77;;
71503;SDS011;59323;50.874;7.028;2022-12-18T15:26:18;27.13;;;10.73;;
71503;SDS011;59323;50.874;7.028;2022-12-18T15:28:47;31.15;;;11.88;;
71503;SDS011;59323;50.874;7.028;2022-12-18T15:36:17;29.63;;;11.98;;
71503;SDS011;59323;50.874;7.028;2022-12-18T15:38:46;35.10;;;12.10;;
71503;SDS011;59323;50.874;7.028;2022-12-18T15:41:15;35.00;;;12.57;;
71503;SDS011;59323;50.874;7.028;2022-12-18T15:43:45;36.37;;;11.47;;
71503;SDS011;59323;50.874;7.028;2022-12-18T15:46:22;32.60;;;11.50;;
71503;SDS011;59323;50.874;7.028;2022-12-18T15:48:49;30.02;;;10.95;;
71503;SDS011;59323;50.874;7.028;2022-12-18T15:51:29;35.45;;;12.13;;
71503;SDS011;59323;50.874;7.028;2022-12-18T15:53:59;33.65;;;11.50;;
71503;SDS011;59323;50.874;7.028;2022-12-18T15:56:28;31.87;;;10.70;;
71503;SDS011;59323;50.874;7.028;2022-12-18T15:59:15;28.27;;;11.02;;
71503;SDS011;59323;50.874;7.028;2022-12-18T16:01:43;38.80;;;12.38;;
71503;SDS011;59323;50.874;7.028;2022-12-18T16:04:11;36.05;;;11.98;;
71503;SDS011;59323;50.874;7.028;2022-12-18T16:06:38;28.08;;;10.57;;
71503;SDS011;59323;50.874;7.028;2022-12-18T16:09:04;31.60;;;11.73;;
71503;SDS011;59323;50.874;7.028;2022-12-18T16:11:30;29.57;;;10.13;;
71503;SDS011;59323;50.874;7.028;2022-12-18T16:17:02;32.78;;;11.73;;
71503;SDS011;59323;50.874;7.028;2022-12-18T16:19:30;27.75;;;11.52;;
71503;SDS011;59323;50.874;7.028;2022-12-18T16:21:56;32.73;;;11.83;;
71503;SDS011;59323;50.874;7.028;2022-12-18T16:24:27;37.92;;;12.93;;
71503;SDS011;59323;50.874;7.028;2022-12-18T16:26:55;33.42;;;12.98;;
71503;SDS011;59323;50.874;7.028;2022-12-18T16:29:22;34.50;;;13.05;;
71503;SDS011;59323;50.874;7.028;2022-12-18T16:31:51;31.17;;;11.63;;
71503;SDS011;59323;50.874;7.028;2022-12-18T16:36:47;36.80;;;12.82;;
71503;SDS011;59323;50.874;7.028;2022-12-18T16:39:16;33.25;;;12.85;;
71503;SDS011;59323;50.874;7.028;2022-12-18T16:41:41;32.87;;;11.00;;
71503;SDS011;59323;50.874;7.028;2022-12-18T16:44:07;32.25;;;11.93;;